Time;durP1;ratioP1;P1;durP2;ratioP2;P2;SDS_P1;SDS_P2;PMS_P1;PMS_P2;Temp;Humidity;BMP_temperature;BMP_pressure;BME280_temperature;BME280_humidity;BME280_pressure;Samples;Min_cycle;Max_cycle;Signal;HPM_P1;HPM_P2
2023/10/08 00:02:05;;;;;;;12.43;3.30;;;;;;;-145.18;100.00;46660.41;5032310;28;20117;-64
2023/10/08 00:04:37;;;;;;;15.07;3.30;;;;;;;-145.18;100.00;46660.41;5028491;28;20033;-65
2023/10/08 00:07:08;;;;;;;14.43;4.33;;;;;;;-145.18;100.00;46638.91;5027136;28;20576;-64
2023/10/08 00:09:36;;;;;;;16.17;4.60;;;;;;;-145.18;100.00;46633.06;5027285;28;20108;-64
2023/10/08 00:12:03;;;;;;;16.67;4.93;;;;;;;-145.18;100.00;46660.41;5030694;28;20491;-64
2023/10/08 00:14:29;;;;;;;14.33;4.00;;;;;;;-145.18;100.00;46635.00;5028541;28;20025;-64
2023/10/08 00:16:55;;;;;;;19.13;3.93;;;;;;;-145.18;100.00;46633.06;5030669;28;20567;-64
2023/10/08 00:19:21;;;;;;;15.13;4.13;;;;;;;-145.18;100.00;46633.06;5028751;28;20172;-64
2023/10/08 00:21:48;;;;;;;24.20;5.00;;;;;;;-145.18;100.00;46660.41;5032898;28;20069;-64
2023/10/08 00:24:13;;;;;;;14.23;3.97;;;;;;;-145.18;100.00;46635.00;5031809;28;20029;-64
2023/10/08 00:26:42;;;;;;;16.37;4.43;;;;;;;-145.18;100.00;46635.00;5032174;28;20382;-64
2023/10/08 00:29:24;;;;;;;15.50;4.23;;;;;;;-145.18;100.00;46660.41;5030787;28;20060;-64
2023/10/08 00:31:50;;;;;;;18.37;4.40;;;;;;;-145.18;100.00;46635.00;5032700;28;20171;-64
2023/10/08 00:34:19;;;;;;;15.47;3.70;;;;;;;-145.18;100.00;46640.88;5031792;28;20538;-64
2023/10/08 00:36:47;;;;;;;14.47;4.30;;;;;;;-145.18;100.00;46660.41;5032420;28;20061;-64
2023/10/08 00:39:14;;;;;;;16.73;4.40;;;;;;;-145.18;100.00;46660.41;5031399;28;20021;-64
2023/10/08 00:41:44;;;;;;;12.33;4.10;;;;;;;-145.18;100.00;46660.41;5031507;28;20025;-64
2023/10/08 00:44:16;;;;;;;15.73;4.93;;;;;;;-145.18;100.00;46660.41;5032030;28;20034;-64
2023/10/08 00:46:47;;;;;;;25.73;5.10;;;;;;;-145.18;100.00;46660.41;5028044;28;20086;-63
2023/10/08 00:50:04;;;;;;;16.43;4.53;;;;;;;-145.18;100.00;46660.41;5031882;28;20386;-64
2023/10/08 00:54:47;;;;;;;24.73;5.10;;;;;;;-145.18;100.00;46660.41;5029678;28;20044;-64
2023/10/08 00:57:21;;;;;;;17.27;4.00;;;;;;;-145.18;100.00;46660.41;5028119;28;20477;-64
2023/10/08 00:59:53;;;;;;;18.77;4.77;;;;;;;-145.18;100.00;46660.41;5028811;28;20021;-64
2023/10/08 01:02:26;;;;;;;12.93;4.63;;;;;;;-145.18;100.00;46660.41;5031074;28;20420;-64
2023/10/08 01:04:54;;;;;;;14.90;4.30;;;;;;;-145.18;100.00;46660.41;5028444;28;20030;-64
2023/10/08 01:07:20;;;;;;;20.20;4.77;;;;;;;-145.18;100.00;46660.41;5031667;28;20033;-64
2023/10/08 01:09:56;;;;;;;21.13;4.87;;;;;;;-145.18;100.00;46660.41;5029945;28;20440;-64
2023/10/08 01:12:27;;;;;;;20.63;5.30;;;;;;;-145.18;100.00;46660.41;5028886;28;20025;-60
2023/10/08 01:14:53;;;;;;;21.43;4.83;;;;;;;-145.18;100.00;46660.41;5030029;28;20021;-60
2023/10/08 01:17:31;;;;;;;15.77;4.87;;;;;;;-145.18;100.00;46660.41;5029218;28;20143;-60
2023/10/08 01:20:08;;;;;;;20.40;4.60;;;;;;;-145.18;100.00;46660.41;5029024;28;20044;-60
2023/10/08 01:22:33;;;;;;;19.50;4.57;;;;;;;-145.18;100.00;46660.41;5030450;28;20061;-60
2023/10/08 01:25:01;;;;;;;19.60;4.80;;;;;;;-145.18;100.00;46660.41;5028670;28;20033;-59
2023/10/08 01:27:34;;;;;;;14.90;4.93;;;;;;;-145.18;100.00;46660.41;5030107;28;20037;-60
2023/10/08 01:30:17;;;;;;;11.03;4.43;;;;;;;-145.18;100.00;46660.41;5030188;28;20075;-60
2023/10/08 01:32:46;;;;;;;15.60;4.13;;;;;;;-145.18;100.00;46660.41;5029725;28;20543;-60
2023/10/08 01:35:23;;;;;;;16.70;4.80;;;;;;;-145.18;100.00;46635.00;5028159;28;20163;-59
2023/10/08 01:37:56;;;;;;;10.47;4.27;;;;;;;-145.18;100.00;46635.00;5028785;28;20036;-60
2023/10/08 01:40:22;;;;;;;13.27;4.53;;;;;;;-145.18;100.00;46660.41;5027067;28;20129;-60
2023/10/08 01:42:51;;;;;;;20.23;4.40;;;;;;;-145.18;100.00;46660.41;5030450;28;20067;-60
2023/10/08 01:45:17;;;;;;;16.57;4.80;;;;;;;-145.18;100.00;46660.41;5029300;28;20060;-59
2023/10/08 01:47:43;;;;;;;19.43;4.80;;;;;;;-145.18;100.00;46660.41;5029005;28;20037;-59
2023/10/08 01:50:21;;;;;;;13.07;5.37;;;;;;;-145.18;100.00;46660.41;5030836;28;20524;-60
2023/10/08 01:52:49;;;;;;;15.07;4.87;;;;;;;-145.18;100.00;46660.41;5028336;28;20401;-60
2023/10/08 01:55:19;;;;;;;20.73;4.97;;;;;;;-145.18;100.00;46660.41;5026571;28;20531;-60
2023/10/08 01:57:49;;;;;;;18.17;5.30;;;;;;;-145.18;100.00;46660.41;5029018;28;20037;-60
2023/10/08 02:00:19;;;;;;;17.23;5.20;;;;;;;-145.18;100.00;46674.06;5026853;28;20109;-60
2023/10/08 02:02:50;;;;;;;17.43;5.13;;;;;;;-145.18;100.00;46660.41;5029659;28;20393;-60
2023/10/08 02:05:15;;;;;;;12.90;5.10;;;;;;;-145.18;100.00;46660.41;5028157;28;20485;-60
2023/10/08 02:07:44;;;;;;;16.70;5.87;;;;;;;-145.18;100.00;46660.41;5030419;28;20079;-59
2023/10/08 02:10:10;;;;;;;22.43;6.47;;;;;;;-145.18;100.00;46633.06;5028689;28;20555;-60
2023/10/08 02:12:39;;;;;;;17.93;5.17;;;;;;;-145.18;100.00;46660.41;5027538;28;20034;-60
2023/10/08 02:15:06;;;;;;;18.37;5.23;;;;;;;-145.18;100.00;46660.41;5028508;28;20048;-60
2023/10/08 02:17:32;;;;;;;22.17;5.63;;;;;;;-145.18;100.00;46660.41;5030891;28;20029;-60
2023/10/08 02:19:58;;;;;;;18.53;5.00;;;;;;;-145.18;100.00;46660.41;5028582;28;20520;-60
2023/10/08 02:22:23;;;;;;;15.00;5.27;;;;;;;-145.18;100.00;46660.41;5028208;28;20072;-64
2023/10/08 02:24:50;;;;;;;14.10;5.23;;;;;;;-145.18;100.00;46660.41;5025974;28;20485;-64
2023/10/08 02:27:16;;;;;;;12.20;5.30;;;;;;;-145.18;100.00;46660.41;5028027;28;20079;-64
2023/10/08 02:29:42;;;;;;;24.60;6.10;;;;;;;-145.18;100.00;46660.41;5029310;28;20030;-64
2023/10/08 02:32:08;;;;;;;14.83;6.10;;;;;;;-145.18;100.00;46660.41;5011284;28;20120;-65
2023/10/08 02:34:35;;;;;;;15.30;5.33;;;;;;;-145.18;100.00;46660.41;5026382;28;20060;-64
2023/10/08 02:37:03;;;;;;;16.70;5.17;;;;;;;-145.18;100.00;46660.41;5030284;28;20033;-64
2023/10/08 02:39:30;;;;;;;17.90;5.50;;;;;;;-145.18;100.00;46660.41;5027599;28;20040;-64
2023/10/08 02:41:59;;;;;;;14.20;5.50;;;;;;;-145.18;100.00;46660.41;5028234;28;20045;-64
2023/10/08 02:44:24;;;;;;;17.50;5.13;;;;;;;-145.18;100.00;46660.41;5030109;28;20056;-64
2023/10/08 02:46:51;;;;;;;15.77;5.33;;;;;;;-145.18;100.00;46660.41;5029214;28;20453;-64
2023/10/08 02:49:22;;;;;;;14.07;5.13;;;;;;;-145.18;100.00;46660.41;5026533;28;20060;-64
2023/10/08 02:51:51;;;;;;;16.50;5.83;;;;;;;-145.18;100.00;46660.41;5027281;28;20037;-64
2023/10/08 02:54:18;;;;;;;17.80;5.90;;;;;;;-145.18;100.00;46660.41;5029464;28;20041;-64
2023/10/08 02:56:57;;;;;;;19.67;5.93;;;;;;;-145.18;100.00;46660.41;5028546;28;20408;-64
2023/10/08 02:59:23;;;;;;;15.97;5.43;;;;;;;-145.18;100.00;46660.41;5029239;28;20052;-64
2023/10/08 03:01:49;;;;;;;17.63;5.60;;;;;;;-145.18;100.00;46660.41;5027698;28;20049;-64
2023/10/08 03:04:18;;;;;;;17.90;5.63;;;;;;;-145.18;100.00;46660.41;5026143;28;20087;-64
2023/10/08 03:06:52;;;;;;;19.13;6.40;;;;;;;-145.18;100.00;46660.41;5028882;28;20033;-64
2023/10/08 03:09:23;;;;;;;16.03;5.67;;;;;;;-145.18;100.00;46660.41;5028881;28;20029;-64
2023/10/08 03:11:50;;;;;;;16.63;5.83;;;;;;;-145.18;100.00;46660.41;5026116;28;20026;-64
2023/10/08 03:14:22;;;;;;;15.50;5.40;;;;;;;-145.18;100.00;46660.41;5028639;28;20385;-64
2023/10/08 03:16:52;;;;;;;16.23;6.13;;;;;;;-145.18;100.00;46660.41;5027587;28;20105;-64
2023/10/08 03:19:19;;;;;;;16.90;5.70;;;;;;;-145.18;100.00;46660.41;5026884;28;20448;-64
2023/10/08 03:21:50;;;;;;;15.90;6.03;;;;;;;-145.18;100.00;46660.41;5027260;28;20749;-64
2023/10/08 03:27:15;;;;;;;23.30;6.17;;;;;;;-145.18;100.00;46660.41;5027794;28;20045;-64
2023/10/08 03:29:41;;;;;;;26.73;5.90;;;;;;;-145.18;100.00;46656.50;5027433;28;20437;-64
2023/10/08 03:32:15;;;;;;;16.13;6.27;;;;;;;-145.18;100.00;46660.41;5029826;28;20477;-64
2023/10/08 03:34:48;;;;;;;16.13;5.90;;;;;;;-145.18;100.00;46660.41;5031884;28;20053;-65
2023/10/08 03:37:21;;;;;;;18.70;6.07;;;;;;;-145.18;100.00;46660.41;5032352;28;20025;-64
2023/10/08 03:39:51;;;;;;;18.90;5.43;;;;;;;-145.18;100.00;46660.41;5032935;28;20029;-64
2023/10/08 03:42:23;;;;;;;16.03;6.10;;;;;;;-145.18;100.00;46660.41;5029804;28;20443;-63
2023/10/08 03:44:54;;;;;;;16.60;5.63;;;;;;;-145.18;100.00;46660.41;5030019;28;20172;-64
2023/10/08 03:47:22;;;;;;;16.53;5.80;;;;;;;-145.18;100.00;46660.41;5031357;28;20479;-64
2023/10/08 03:49:50;;;;;;;15.87;6.10;;;;;;;-145.18;100.00;46660.41;5029294;28;20025;-64
2023/10/08 03:52:17;;;;;;;14.07;5.73;;;;;;;-145.18;100.00;46660.41;5030186;28;20037;-65
2023/10/08 03:54:48;;;;;;;16.40;5.60;;;;;;;-145.18;100.00;46660.41;5031273;28;20444;-65
2023/10/08 03:57:18;;;;;;;22.40;6.20;;;;;;;-145.18;100.00;46660.41;5026517;28;20033;-64
2023/10/08 03:59:48;;;;;;;18.90;6.37;;;;;;;-145.18;100.00;46660.41;5032944;28;20059;-64
2023/10/08 04:02:14;;;;;;;23.47;6.63;;;;;;;-145.18;100.00;46660.41;5030084;28;20044;-64
2023/10/08 04:04:56;;;;;;;20.33;6.77;;;;;;;-145.18;100.00;46660.41;5031487;28;20057;-64
2023/10/08 04:12:44;;;;;;;15.47;6.00;;;;;;;-145.18;100.00;46660.41;5031506;28;20516;-64
2023/10/08 04:15:12;;;;;;;15.57;6.20;;;;;;;-145.18;100.00;46660.41;5030574;28;20048;-65
2023/10/08 04:17:44;;;;;;;16.30;6.17;;;;;;;-145.18;100.00;46660.41;5032676;28;20045;-64
2023/10/08 04:23:02;;;;;;;18.83;6.50;;;;;;;-145.18;100.00;46660.41;5027627;28;20084;-64
2023/10/08 04:25:31;;;;;;;19.10;6.97;;;;;;;-145.18;100.00;46660.41;5032162;28;20037;-64
2023/10/08 04:28:01;;;;;;;15.33;6.50;;;;;;;-145.18;100.00;46660.41;5030855;28;20038;-64
2023/10/08 04:30:35;;;;;;;18.77;6.70;;;;;;;-145.18;100.00;46660.41;5028261;28;20064;-64
2023/10/08 04:33:07;;;;;;;18.33;6.97;;;;;;;-145.18;100.00;46660.41;5030312;28;20026;-64
2023/10/08 04:35:36;;;;;;;17.33;6.90;;;;;;;-145.18;100.00;46660.41;5030306;28;20469;-64
2023/10/08 04:38:08;;;;;;;22.27;6.87;;;;;;;-145.18;100.00;46633.06;5031034;28;20208;-64
2023/10/08 04:40:41;;;;;;;15.90;5.83;;;;;;;-145.18;100.00;46660.41;5029713;28;20037;-64
2023/10/08 04:43:10;;;;;;;17.63;6.60;;;;;;;-145.18;100.00;46660.41;5032713;28;20513;-64
2023/10/08 04:45:37;;;;;;;13.53;6.63;;;;;;;-145.18;100.00;46660.41;5028560;28;20481;-64
2023/10/08 04:48:09;;;;;;;14.57;7.20;;;;;;;-145.18;100.00;46660.41;5031298;28;20108;-65
2023/10/08 04:50:37;;;;;;;22.00;7.93;;;;;;;-145.18;100.00;46658.44;5031554;28;20125;-64
2023/10/08 04:53:07;;;;;;;18.83;7.30;;;;;;;-145.18;100.00;46660.41;5032440;28;20041;-64
2023/10/08 04:55:35;;;;;;;23.93;7.87;;;;;;;-145.18;100.00;46660.41;5029269;28;20037;-64
2023/10/08 04:58:04;;;;;;;21.57;7.33;;;;;;;-145.18;100.00;46660.41;5028517;28;20029;-65
2023/10/08 05:00:53;;;;;;;17.87;8.30;;;;;;;-145.18;100.00;46660.41;5029141;28;20480;-64
2023/10/08 05:03:20;;;;;;;17.87;7.27;;;;;;;-145.18;100.00;46660.41;5030559;28;20788;-65
2023/10/08 05:05:57;;;;;;;18.23;7.33;;;;;;;-145.18;100.00;46660.41;5032128;28;20041;-64
2023/10/08 05:08:32;;;;;;;18.10;6.90;;;;;;;-145.18;100.00;46660.41;5029331;28;20084;-65
2023/10/08 05:11:15;;;;;;;21.95;7.72;;;;;;;-145.18;100.00;46658.44;5034423;28;20029;-64
2023/10/08 05:13:55;;;;;;;19.53;7.47;;;;;;;-145.18;100.00;46660.41;5030128;28;20029;-65
2023/10/08 05:16:43;;;;;;;24.67;7.77;;;;;;;-145.18;100.00;46660.41;5028312;28;20057;-64
2023/10/08 05:19:37;;;;;;;21.00;7.87;;;;;;;-145.18;100.00;46660.41;5026264;28;20465;-64
2023/10/08 05:22:17;;;;;;;16.57;7.63;;;;;;;-145.18;100.00;46660.41;5029799;28;20051;-64
2023/10/08 05:35:54;;;;;;;20.13;8.10;;;;;;;-145.18;100.00;46660.41;5030596;28;20064;-65
2023/10/08 05:41:27;;;;;;;16.37;7.67;;;;;;;-145.18;100.00;46660.41;5022580;28;20049;-65
2023/10/08 05:44:13;;;;;;;24.27;9.40;;;;;;;-145.18;100.00;46660.41;5028578;28;20461;-65
2023/10/08 05:46:56;;;;;;;15.98;6.97;;;;;;;-145.18;100.00;46660.41;5025382;28;20049;-65
2023/10/08 06:13:13;;;;;;;17.00;7.20;;;;;;;-145.18;100.00;46658.44;5046724;28;19917;-66
2023/10/08 06:16:04;;;;;;;17.37;7.63;;;;;;;-145.18;100.00;46658.44;5029536;28;20025;-66
2023/10/08 06:18:31;;;;;;;18.20;6.80;;;;;;;-145.18;100.00;46660.41;5029075;28;20025;-65
2023/10/08 06:21:11;;;;;;;18.10;7.03;;;;;;;-145.18;100.00;46654.53;5030233;28;20072;-65
2023/10/08 06:23:42;;;;;;;18.63;7.83;;;;;;;-145.18;100.00;46656.50;5027594;28;20183;-66
2023/10/08 06:28:39;;;;;;;22.70;7.70;;;;;;;-145.18;100.00;46660.41;5029828;28;20472;-66
2023/10/08 06:31:11;;;;;;;18.93;8.57;;;;;;;-145.18;100.00;46660.41;5030443;28;20029;-66
2023/10/08 06:33:40;;;;;;;17.73;7.07;;;;;;;-145.18;100.00;46660.41;5029493;28;20096;-65
2023/10/08 06:38:39;;;;;;;18.57;7.03;;;;;;;-145.18;100.00;46660.41;5020515;28;20033;-65
2023/10/08 06:41:15;;;;;;;23.70;7.50;;;;;;;-145.18;100.00;46660.41;5025298;28;20056;-65
2023/10/08 06:43:49;;;;;;;17.85;7.43;;;;;;;-145.18;100.00;46660.41;5029084;28;20033;-65
2023/10/08 06:46:22;;;;;;;16.87;7.33;;;;;;;-145.18;100.00;46660.41;5027438;28;20040;-66
2023/10/08 06:48:49;;;;;;;19.23;7.33;;;;;;;-145.18;100.00;46660.41;5028739;28;21490;-66
2023/10/08 06:51:17;;;;;;;17.57;8.57;;;;;;;-145.18;100.00;46660.41;5028232;28;20463;-66
2023/10/08 06:53:44;;;;;;;16.33;7.27;;;;;;;-145.18;100.00;46660.41;5028204;28;20029;-66
2023/10/08 06:56:12;;;;;;;18.20;7.93;;;;;;;-145.18;100.00;46660.41;5029710;28;20126;-65
2023/10/08 06:58:39;;;;;;;17.93;7.57;;;;;;;-145.18;100.00;46660.41;5025708;28;20501;-65
2023/10/08 07:01:05;;;;;;;20.60;7.80;;;;;;;-145.18;100.00;46660.41;5030594;28;20029;-65
2023/10/08 07:03:34;;;;;;;23.30;9.30;;;;;;;-145.18;100.00;46660.41;5029359;28;20071;-65
2023/10/08 07:06:02;;;;;;;17.73;8.40;;;;;;;-145.18;100.00;46660.41;5028426;28;20022;-66
2023/10/08 07:08:35;;;;;;;18.70;8.47;;;;;;;-145.18;100.00;46660.41;5029952;28;20037;-66
2023/10/08 07:11:06;;;;;;;16.43;8.40;;;;;;;-145.18;100.00;46660.41;5033692;28;20032;-66
2023/10/08 07:13:32;;;;;;;17.17;8.30;;;;;;;-145.18;100.00;46660.41;5031887;28;20028;-66
2023/10/08 07:15:58;;;;;;;21.43;9.23;;;;;;;-145.18;100.00;46660.41;5032899;28;20021;-66
2023/10/08 07:18:26;;;;;;;13.27;7.70;;;;;;;-145.18;100.00;46660.41;5031185;28;20475;-66
2023/10/08 07:20:53;;;;;;;19.67;8.63;;;;;;;-145.18;100.00;46660.41;5031204;28;20029;-66
2023/10/08 07:23:27;;;;;;;25.03;8.43;;;;;;;-145.18;100.00;46660.41;5028527;28;20049;-66
2023/10/08 07:26:17;;;;;;;22.13;9.20;;;;;;;-145.18;100.00;46658.44;5030802;28;20040;-65
2023/10/08 07:28:45;;;;;;;17.63;8.17;;;;;;;-145.18;100.00;46660.41;5030207;28;20102;-66
2023/10/08 07:31:22;;;;;;;26.70;9.20;;;;;;;-145.18;100.00;46623.28;5029610;28;20029;-66
2023/10/08 07:33:56;;;;;;;26.93;9.00;;;;;;;-145.18;100.00;46623.28;5031026;28;20544;-66
2023/10/08 07:36:26;;;;;;;25.67;9.50;;;;;;;-145.18;100.00;46660.41;5027968;28;20485;-65
2023/10/08 07:38:52;;;;;;;23.03;9.13;;;;;;;-145.18;100.00;46660.41;5032590;28;20493;-66
2023/10/08 07:41:20;;;;;;;33.40;9.83;;;;;;;-145.18;100.00;46627.19;5029038;28;20067;-66
2023/10/08 07:43:55;;;;;;;30.70;11.00;;;;;;;-145.18;100.00;46660.41;5031037;28;20037;-66
2023/10/08 07:46:26;;;;;;;38.92;13.63;;;;;;;-145.18;100.00;46660.41;5032000;28;20504;-65
2023/10/08 07:48:51;;;;;;;35.60;12.23;;;;;;;-145.18;100.00;46660.41;5030726;28;20117;-66
2023/10/08 07:51:23;;;;;;;39.23;12.23;;;;;;;-145.18;100.00;46660.41;5020282;28;20232;-65
2023/10/08 07:53:55;;;;;;;41.13;12.23;;;;;;;-145.18;100.00;46658.44;5027101;28;20017;-65
2023/10/08 07:56:21;;;;;;;38.43;12.37;;;;;;;-145.18;100.00;46658.44;5028077;28;20465;-65
2023/10/08 07:58:47;;;;;;;37.13;11.63;;;;;;;-145.18;100.00;46656.50;5027721;28;20030;-65
2023/10/08 08:01:13;;;;;;;40.50;11.90;;;;;;;-145.18;100.00;46658.44;5031308;28;20370;-65
2023/10/08 08:03:42;;;;;;;35.23;10.20;;;;;;;-145.18;100.00;46658.44;5030736;28;20041;-65
2023/10/08 08:06:09;;;;;;;38.60;10.53;;;;;;;-145.18;100.00;46660.41;5031409;28;20025;-65
2023/10/08 08:08:36;;;;;;;39.60;9.80;;;;;;;-145.18;100.00;46660.41;5030495;28;20417;-65
2023/10/08 08:11:11;;;;;;;30.07;9.27;;;;;;;-145.18;100.00;46656.50;5032663;28;20091;-61
2023/10/08 08:13:38;;;;;;;38.90;9.68;;;;;;;-145.18;100.00;46658.44;5031093;28;20053;-61
2023/10/08 08:16:16;;;;;;;38.13;9.60;;;;;;;-145.18;100.00;46654.53;5031912;28;20026;-61
2023/10/08 08:18:59;;;;;;;33.17;10.27;;;;;;;-145.18;100.00;46619.38;5031880;28;20144;-61
2023/10/08 08:21:25;;;;;;;33.93;8.53;;;;;;;-145.18;100.00;46621.31;5028188;28;20489;-60
2023/10/08 08:23:52;;;;;;;36.43;9.77;;;;;;;-145.18;100.00;46623.28;5030613;28;20049;-61
2023/10/08 08:26:26;;;;;;;32.10;8.47;;;;;;;-145.18;100.00;46621.31;5028232;28;20025;-61
2023/10/08 08:28:54;;;;;;;28.23;8.77;;;;;;;-145.18;100.00;46623.28;5032856;28;20027;-61
2023/10/08 08:31:20;;;;;;;54.70;9.73;;;;;;;-145.18;100.00;46623.28;5029151;28;20440;-61
2023/10/08 08:34:08;;;;;;;33.27;9.00;;;;;;;-145.18;100.00;46625.22;5028635;28;20025;-61
2023/10/08 08:36:37;;;;;;;36.03;9.03;;;;;;;-145.18;100.00;46625.22;5030392;28;20021;-61
2023/10/08 08:39:04;;;;;;;31.10;9.53;;;;;;;-145.18;100.00;46621.31;5031029;28;20036;-61
2023/10/08 08:41:29;;;;;;;34.03;8.13;;;;;;;-145.18;100.00;46619.38;5027927;28;20099;-61
2023/10/08 08:43:58;;;;;;;35.27;8.63;;;;;;;-145.18;100.00;46625.22;5029313;28;20477;-63
2023/10/08 08:46:49;;;;;;;34.73;9.43;;;;;;;-145.18;100.00;46625.22;5031846;28;20435;-61
2023/10/08 08:49:15;;;;;;;32.80;8.40;;;;;;;-145.18;100.00;46629.13;5029243;28;20052;-61
2023/10/08 08:51:42;;;;;;;32.57;8.67;;;;;;;-145.18;100.00;46629.13;5031101;28;20029;-61
2023/10/08 08:54:08;;;;;;;37.80;9.73;;;;;;;-145.18;100.00;46629.13;5028554;28;20029;-61
2023/10/08 08:56:36;;;;;;;31.23;9.83;;;;;;;-145.18;100.00;46627.19;5031202;28;20033;-61
2023/10/08 08:59:04;;;;;;;33.03;8.47;;;;;;;-145.18;100.00;46631.09;5029832;28;20053;-61
2023/10/08 09:01:30;;;;;;;36.50;9.40;;;;;;;-145.18;100.00;46636.94;5030873;28;20052;-61
2023/10/08 09:04:05;;;;;;;29.60;9.10;;;;;;;-145.18;100.00;46635.00;5029324;28;20091;-61
2023/10/08 09:06:39;;;;;;;32.60;9.37;;;;;;;-145.18;100.00;46633.06;5031778;28;20029;-61
2023/10/08 09:09:23;;;;;;;28.80;8.93;;;;;;;-145.18;100.00;46633.06;5028059;28;20037;-61
2023/10/08 09:11:51;;;;;;;27.27;9.77;;;;;;;-145.18;100.00;46636.94;5028497;28;20500;-61
2023/10/08 09:14:20;;;;;;;29.23;8.80;;;;;;;-145.18;100.00;46638.91;5030362;28;20083;-61
2023/10/08 09:16:46;;;;;;;33.60;9.73;;;;;;;-145.18;100.00;46636.94;5028384;28;20057;-61
2023/10/08 09:19:18;;;;;;;24.47;9.13;;;;;;;-145.18;100.00;46633.06;5028336;28;20107;-61
2023/10/08 09:21:59;;;;;;;38.37;9.90;;;;;;;-145.18;100.00;46642.81;5029493;28;20136;-65
2023/10/08 09:24:25;;;;;;;27.20;9.83;;;;;;;-145.18;100.00;46636.94;5029013;28;20072;-65
2023/10/08 09:26:52;;;;;;;30.43;9.47;;;;;;;-145.18;100.00;46636.94;5028433;28;20382;-65
2023/10/08 09:29:17;;;;;;;32.23;9.50;;;;;;;-145.18;100.00;46642.81;5031280;28;20398;-65
2023/10/08 09:31:55;;;;;;;35.60;11.27;;;;;;;-145.18;100.00;46640.88;5031134;28;20059;-65
2023/10/08 09:34:22;;;;;;;22.97;9.23;;;;;;;-145.18;100.00;46644.78;5027322;28;20026;-65
2023/10/08 09:36:48;;;;;;;30.53;9.43;;;;;;;-145.18;100.00;46646.72;5029143;28;20043;-65
2023/10/08 09:39:23;;;;;;;25.53;8.87;;;;;;;-145.18;100.00;46646.72;5030782;28;20108;-66
2023/10/08 09:41:50;;;;;;;26.45;9.32;;;;;;;-145.18;100.00;46648.69;5029880;28;20045;-65
2023/10/08 09:44:19;;;;;;;26.43;8.47;;;;;;;-145.18;100.00;46648.69;5028382;28;20050;-65
2023/10/08 09:46:50;;;;;;;25.33;9.10;;;;;;;-145.18;100.00;46650.63;5030904;28;20087;-65
2023/10/08 09:49:16;;;;;;;25.40;8.93;;;;;;;-145.18;100.00;46658.44;5029262;28;20440;-65
2023/10/08 09:51:43;;;;;;;22.20;8.47;;;;;;;-145.18;100.00;46658.44;5027268;28;20432;-65
2023/10/08 09:54:18;;;;;;;21.27;7.93;;;;;;;-145.18;100.00;46662.34;5029437;28;20025;-65
2023/10/08 09:56:44;;;;;;;23.27;8.07;;;;;;;-145.18;100.00;46660.41;5028534;28;20052;-65
2023/10/08 09:59:10;;;;;;;24.07;7.83;;;;;;;-145.18;100.00;46664.31;5027515;28;20048;-65
2023/10/08 10:01:38;;;;;;;21.83;7.47;;;;;;;-145.18;100.00;46668.22;5030401;28;20539;-65
2023/10/08 10:04:11;;;;;;;24.60;8.03;;;;;;;-145.18;100.00;46664.31;5029940;28;20405;-65
2023/10/08 10:06:37;;;;;;;18.97;7.07;;;;;;;-145.18;100.00;46672.13;5028270;28;20056;-65
2023/10/08 10:09:08;;;;;;;16.03;6.87;;;;;;;-145.18;100.00;46672.13;5028257;28;20035;-65
2023/10/08 10:11:33;;;;;;;22.77;7.20;;;;;;;-145.18;100.00;46674.06;5031134;28;20037;-65
2023/10/08 10:14:00;;;;;;;18.40;6.83;;;;;;;-145.18;100.00;46676.03;5030878;28;20120;-65
2023/10/08 10:16:29;;;;;;;15.47;5.93;;;;;;;-145.18;100.00;46676.03;5025238;28;20375;-65
2023/10/08 10:19:00;;;;;;;16.47;6.47;;;;;;;-145.18;100.00;46679.94;5027690;28;20025;-65
2023/10/08 10:21:33;;;;;;;22.67;6.70;;;;;;;-145.18;100.00;46677.97;5028079;28;20037;-65
2023/10/08 10:23:59;;;;;;;16.10;6.33;;;;;;;-145.18;100.00;46679.94;5027759;28;20047;-65
2023/10/08 10:26:33;;;;;;;13.37;5.60;;;;;;;-145.18;100.00;46679.94;5025819;28;20109;-65
2023/10/08 10:29:10;;;;;;;14.10;5.87;;;;;;;-145.18;100.00;46683.84;5029863;28;20543;-65
2023/10/08 10:31:44;;;;;;;18.47;6.17;;;;;;;-145.18;100.00;46676.03;5029822;28;20033;-63
2023/10/08 10:34:12;;;;;;;13.67;5.53;;;;;;;-145.18;100.00;46683.84;5029418;28;20025;-65
2023/10/08 10:36:39;;;;;;;17.90;6.23;;;;;;;-145.18;100.00;46679.94;5027625;28;20045;-65
2023/10/08 10:39:28;;;;;;;13.20;6.03;;;;;;;-145.18;100.00;46683.84;5029584;28;20482;-65
2023/10/08 10:42:01;;;;;;;12.17;6.10;;;;;;;-145.18;100.00;46683.84;5028882;28;20025;-65
2023/10/08 10:44:29;;;;;;;16.47;6.83;;;;;;;-145.18;100.00;46683.84;5025869;28;20026;-65
2023/10/08 10:50:18;;;;;;;11.40;5.90;;;;;;;-145.18;100.00;46685.78;5029790;28;20083;-65
2023/10/08 10:52:53;;;;;;;14.23;6.27;;;;;;;-145.18;100.00;46681.88;5028390;28;20034;-65
2023/10/08 10:55:22;;;;;;;16.73;6.70;;;;;;;-145.18;100.00;46677.97;5024955;28;20541;-65
2023/10/08 10:58:14;;;;;;;14.87;6.17;;;;;;;-145.18;100.00;46687.75;5029397;28;20029;-65
2023/10/08 11:03:17;;;;;;;18.43;6.70;;;;;;;-145.18;100.00;46689.69;5027529;28;20507;-65
2023/10/08 11:05:51;;;;;;;17.47;5.80;;;;;;;-145.18;100.00;46693.59;5027239;28;20390;-65
2023/10/08 11:08:18;;;;;;;12.90;5.90;;;;;;;-145.18;100.00;46676.03;5024958;28;20048;-65
2023/10/08 11:10:50;;;;;;;17.73;6.27;;;;;;;-145.18;100.00;46664.31;5028723;28;20087;-64
2023/10/08 11:13:16;;;;;;;11.73;5.33;;;;;;;-145.18;100.00;46658.44;5027537;28;20076;-65
2023/10/08 11:15:43;;;;;;;12.93;5.57;;;;;;;-145.18;100.00;46660.41;5028146;28;20037;-65
2023/10/08 11:18:15;;;;;;;12.70;6.40;;;;;;;-145.18;100.00;46658.44;5027495;28;20025;-65
2023/10/08 11:20:44;;;;;;;11.90;6.70;;;;;;;-145.18;100.00;46662.34;5024629;28;20037;-65
2023/10/08 11:23:17;;;;;;;14.57;6.83;;;;;;;-145.18;100.00;46676.03;5025303;28;20132;-65
2023/10/08 11:25:53;;;;;;;21.93;7.00;;;;;;;-145.18;100.00;46683.84;5025094;28;20584;-65
2023/10/08 11:28:19;;;;;;;15.30;6.53;;;;;;;-145.18;100.00;46687.75;5027745;28;20044;-65
2023/10/08 11:30:46;;;;;;;14.07;6.57;;;;;;;-145.18;100.00;46691.66;5025811;28;20030;-65
2023/10/08 11:33:15;;;;;;;12.40;6.23;;;;;;;-145.18;100.00;46691.66;5027676;28;20030;-65
2023/10/08 11:36:01;;;;;;;14.07;6.80;;;;;;;-145.18;100.00;46691.66;5028450;28;20040;-65
2023/10/08 11:38:27;;;;;;;;;;;;;;;-145.18;100.00;46683.84;5025900;28;20029;-65
2023/10/08 11:40:56;;;;;;;13.63;6.22;;;;;;;-145.18;100.00;46683.84;5026397;28;20384;-61
2023/10/08 11:43:24;;;;;;;11.73;6.67;;;;;;;-145.18;100.00;46689.69;5025801;28;20049;-61
2023/10/08 11:45:51;;;;;;;14.20;6.07;;;;;;;-145.18;100.00;46687.75;5027800;28;20041;-61
2023/10/08 11:48:21;;;;;;;14.43;6.17;;;;;;;-145.18;100.00;46687.75;5027851;28;20029;-59
2023/10/08 11:50:50;;;;;;;21.57;7.30;;;;;;;-145.18;100.00;46691.66;5029259;28;20025;-61
2023/10/08 11:53:18;;;;;;;16.40;7.63;;;;;;;-145.18;100.00;46697.50;5026590;28;20037;-61
2023/10/08 11:55:47;;;;;;;12.80;6.77;;;;;;;-145.18;100.00;46691.66;5031581;28;20543;-62
2023/10/08 11:58:17;;;;;;;17.23;6.63;;;;;;;-145.18;100.00;46693.59;5030790;28;20038;-61
2023/10/08 12:00:44;;;;;;;13.93;7.13;;;;;;;-145.18;100.00;46687.75;5032672;28;20022;-61
2023/10/08 12:03:11;;;;;;;18.33;8.53;;;;;;;-145.18;100.00;46689.69;5030940;28;20037;-61
2023/10/08 12:05:38;;;;;;;17.00;7.70;;;;;;;-145.18;100.00;46689.69;5030138;28;20030;-61
2023/10/08 12:08:08;;;;;;;14.07;6.80;;;;;;;-145.18;100.00;46689.69;5032688;28;20021;-61
2023/10/08 12:10:34;;;;;;;11.87;6.70;;;;;;;-145.18;100.00;46683.84;5031212;28;20088;-61
2023/10/08 12:13:00;;;;;;;16.87;8.43;;;;;;;-145.18;100.00;46685.78;5030433;28;20541;-59
2023/10/08 12:15:34;;;;;;;15.70;7.90;;;;;;;-145.18;100.00;46683.84;5029564;28;20092;-61
2023/10/08 12:18:11;;;;;;;19.67;6.60;;;;;;;-145.18;100.00;46687.75;5030115;28;20030;-61
2023/10/08 12:20:43;;;;;;;11.07;6.33;;;;;;;-145.18;100.00;46687.75;5028879;28;20029;-61